Aérodrome :







RETROUVEZ-NOUS SUR...

 
LOGIN :

S'inscrire | Disclaimer

   EN    FR    IT 

 









Légende :    VFR   VFR Marginal   IFR   IFR Intensif   IFR Très Intensif
Visi : 
Plafond : 
>= 8 km
>= 3000ft
5 à 8 km
1000 à 3000 ft
1500m à 5 km
500 à 1000 ft
800 à 1500m
200 à 500 ft
< 800m
< 200 ft
Symboles :   Orages  Brouillard  Fortes neiges  Fortes précipitations  Vent > 20 kt






- Altitude de l'aérodrome : 193 ft
- Code IATA : ZBF


CZBF - Bathurst

DERNIER METAR :
  • 180300Z AUTO 29015G29KT 9SM -SN CLR M19/M25 A3033 RMK SLP278

METARs EXPIRÉS :
  • 180242Z AUTO 29016G31KT 270V330 9SM -SN CLR M19/M24 A3033 RMK SLP277
  • 180226Z AUTO 30012G28KT 9SM -SN CLR M19/M24 A3033 RMK SLP279
  • 180200Z AUTO 30013G30KT 8SM -SN CLR M19/M25 A3033 RMK SLP278
  • 180100Z AUTO 30017G34KT 8SM -SN CLR M19/M25 A3033 RMK SLP280

TAF TAF CZBF
Valide du 18 à 02h jusqu'au 18 à 04h UTC


180138Z 1802/1804 30015G25KT P6SM SKC
TEMPO 1802/1804 21/2SM BLSN RMK FCST BASED ON AUTO OBS. NXT FCST WILL BE ISSUED AT 180945Z



MET'MAP, la Météo Aéronautique d'un coup d'oeil ! - Copyright ORBIFLY Décembre 2007 - Disclaimer

ORBIFLY MET'MAP TEAM :

Programmation & Développement : Alexandra Zaïnal
Sur une idée originale de : Baudouin d'Aumeries
Assistance à la programmation : Marc-Olivier Méhu
Soutien technique & logistique : Manuel Goepfert

Contact : metmap@orbifly.com




SOURCES & CREDITS :

   NOAA